Rechercher aéroport 
image banner adimage banner adimage banner ad
image banner ad

24PA - Kindelberger Landing Strip

Situé à Freedom, United States

ICAO - 24PA, IATA -

Données fournies par Airmate  

Information générale

Coordonnées: N40°41'30" W80°10'40"
Élévation : 1140 feet MSL.
Variation magnétique : -08° East
Voir autres Aéroports à Pennsylvania

Données opérationnelles

Special qualification required
Heure actuelle UTC:
Heure actuelle locale:
Météo à : KBVI - Beaver County ( 20 km )
METAR: KBVI 150555Z AUTO 30004KT 10SM CLR 14/13 A2991 RMK AO2 T01430128
TAF: KBVI 150536Z 1506/1606 31004KT P6SM SCT040 TEMPO 1510/1512 2SM BR SCT002 FM151500 33010G18KT P6SM SCT040 FM160000 33007KT P6SM SCT200
Voir NOTAMs / SUP AIP / TFR affectant cet aéroport [VIEW]
Fréquences de communication: [VIEW]

Pistes:

Identifiant RWYQFULongueur (ft)Largeur (ft)SurfaceLDA (ft)
091515110GRASS
271515110GRASS

Coordonnées de l'aéroport

Adresse: Freedom United States

Vue satellite de 24PA